Aviation Digital Data Service (ADDS)

Output produced by METARs form (0257 UTC 23 April 2021)
found at http://aviationweather.gov/metar/data/
 
KRDG 230254Z 26007KT 10SM CLR 04/M07 A2999 RMK AO2 SLP164 T00441072 51013
KRDG 230120Z 2301/2324 27006KT P6SM SCT080 
     FM231400 28012G22KT P6SM SKC 
     FM232300 26008KT P6SM SCT080
       
KABE 230251Z 25007KT 10SM CLR 03/M09 A2997 RMK AO2 SLP150 T00331089 51011
KABE 230120Z 2301/2324 27006KT P6SM SCT080 
     FM231400 27012G22KT P6SM SKC 
     FM232300 26008KT P6SM SCT080
       
KPNE 230254Z 25008KT 10SM CLR 06/M08 A3002 RMK AO2 SLP164 T00561078 51016
KPNE 230121Z 2301/2324 28008KT P6SM SCT080 
     FM231400 28014G24KT P6SM SKC 
     FM232300 27008KT P6SM SCT080